Time;durP1;ratioP1;P1;durP2;ratioP2;P2;SDS_P1;SDS_P2;PMS_P1;PMS_P2;Temp;Humidity;BMP_temperature;BMP_pressure;BME280_temperature;BME280_humidity;BME280_pressure;Samples;Min_cycle;Max_cycle;Signal;HPM_P1;HPM_P2
2023/12/17 00:00:03;;;;;;;1.77;1.33;;;10.90;99.90;;;;;;5008455;28;20056;-75
2023/12/17 00:02:30;;;;;;;1.60;1.13;;;10.90;99.90;;;;;;5039295;28;20052;-74
2023/12/17 00:04:57;;;;;;;1.98;1.40;;;10.80;99.90;;;;;;5023742;28;20115;-75
2023/12/17 00:07:24;;;;;;;2.17;1.60;;;10.80;99.90;;;;;;5022950;28;20487;-75
2023/12/17 00:09:51;;;;;;;1.52;1.20;;;10.80;99.90;;;;;;5041230;28;20465;-74
2023/12/17 00:12:17;;;;;;;1.65;1.30;;;10.80;99.90;;;;;;5040975;28;20084;-74
2023/12/17 00:14:45;;;;;;;1.30;1.02;;;10.80;99.90;;;;;;5007145;28;20053;-73
2023/12/17 00:17:12;;;;;;;1.50;1.20;;;10.80;99.90;;;;;;5021545;28;20056;-73
2023/12/17 00:19:39;;;;;;;1.27;1.00;;;10.80;1.00;;;;;;5023054;28;20469;-74
2023/12/17 00:22:06;;;;;;;0.93;0.75;;;10.80;99.90;;;;;;5039812;28;20110;-74
2023/12/17 00:24:33;;;;;;;1.70;1.00;;;10.70;99.90;;;;;;5022857;28;20572;-73
2023/12/17 00:26:59;;;;;;;1.83;1.02;;;10.70;99.90;;;;;;5006608;28;20514;-73
2023/12/17 00:29:26;;;;;;;1.45;1.00;;;10.70;1.00;;;;;;5041035;28;20266;-74
2023/12/17 00:31:53;;;;;;;0.73;0.73;;;10.70;1.00;;;;;;5038830;28;20102;-74
2023/12/17 00:34:27;;;;;;;2.40;0.90;;;10.70;1.00;;;;;;5023313;28;20060;-74
2023/12/17 00:36:54;;;;;;;0.52;0.50;;;10.70;1.00;;;;;;4989911;28;20110;-74
2023/12/17 00:39:21;;;;;;;1.27;0.80;;;10.70;1.00;;;;;;5040531;28;20048;-74
2023/12/17 00:41:48;;;;;;;1.27;0.70;;;10.70;99.90;;;;;;5019711;28;20080;-74
2023/12/17 00:44:15;;;;;;;1.95;0.80;;;10.60;99.90;;;;;;5006054;28;20147;-74
2023/12/17 00:46:42;;;;;;;0.85;0.57;;;10.60;99.90;;;;;;5021189;28;20055;-74
2023/12/17 00:49:09;;;;;;;1.98;1.15;;;10.60;99.90;;;;;;5022350;28;20044;-74
2023/12/17 00:51:36;;;;;;;1.40;0.77;;;10.60;99.90;;;;;;5040746;28;20130;-74
2023/12/17 00:54:02;;;;;;;0.75;0.47;;;10.60;99.90;;;;;;4990236;28;20107;-74
2023/12/17 00:56:30;;;;;;;1.77;0.80;;;10.50;99.90;;;;;;5022932;28;20135;-74
2023/12/17 00:58:56;;;;;;;1.20;0.63;;;10.50;99.90;;;;;;5006667;28;20487;-74
2023/12/17 01:01:24;;;;;;;1.23;0.70;;;10.50;99.90;;;;;;5005123;28;20056;-74
2023/12/17 01:03:51;;;;;;;0.80;0.60;;;10.50;99.90;;;;;;5040337;28;20049;-74
2023/12/17 01:06:18;;;;;;;1.30;0.80;;;10.50;99.90;;;;;;5040202;28;20049;-74
2023/12/17 01:08:45;;;;;;;1.60;0.57;;;10.60;99.90;;;;;;5040550;28;20128;-74
2023/12/17 01:11:12;;;;;;;1.10;0.52;;;10.60;99.90;;;;;;5021767;28;20589;-74
2023/12/17 01:13:38;;;;;;;0.77;0.70;;;10.60;99.90;;;;;;5022652;28;20518;-74
2023/12/17 01:16:05;;;;;;;3.00;1.02;;;10.60;99.90;;;;;;5021385;28;20138;-74
2023/12/17 01:18:32;;;;;;;1.30;0.60;;;10.50;99.90;;;;;;5022663;28;20092;-74
2023/12/17 01:21:03;;;;;;;2.42;0.80;;;10.50;99.90;;;;;;5007446;28;20060;-74
2023/12/17 01:23:30;;;;;;;1.60;0.68;;;10.50;99.90;;;;;;5021870;28;20053;-74
2023/12/17 01:25:56;;;;;;;0.90;0.70;;;10.50;99.90;;;;;;5021918;28;20056;-74
2023/12/17 01:28:23;;;;;;;2.13;0.60;;;10.60;99.90;;;;;;5022437;28;20102;-74
2023/12/17 01:30:50;;;;;;;2.08;0.70;;;10.50;99.90;;;;;;5022236;28;20053;-74
2023/12/17 01:33:17;;;;;;;0.65;0.57;;;10.50;99.90;;;;;;5020731;28;20508;-74
2023/12/17 01:35:44;;;;;;;2.42;0.57;;;10.50;99.90;;;;;;5040509;28;20502;-74
2023/12/17 01:38:11;;;;;;;1.13;0.68;;;10.50;99.90;;;;;;5022469;28;20211;-74
2023/12/17 01:40:39;;;;;;;2.00;0.57;;;10.50;99.90;;;;;;5021985;28;20128;-74
2023/12/17 01:43:09;;;;;;;1.60;0.88;;;10.50;99.90;;;;;;4989239;28;20045;-74
2023/12/17 01:45:36;;;;;;;1.48;0.68;;;10.50;99.90;;;;;;5005605;28;20118;-74
2023/12/17 01:48:03;;;;;;;1.15;0.60;;;10.50;99.90;;;;;;5024750;28;20052;-74
2023/12/17 01:50:30;;;;;;;0.77;0.50;;;10.50;99.90;;;;;;5026840;28;20383;-74
2023/12/17 01:52:57;;;;;;;0.90;0.68;;;10.50;99.90;;;;;;5043128;28;20462;-74
2023/12/17 01:55:24;;;;;;;1.00;0.85;;;10.50;99.90;;;;;;5025808;28;20056;-74
2023/12/17 01:57:51;;;;;;;3.58;1.00;;;10.50;99.90;;;;;;5026614;28;20064;-74
2023/12/17 02:00:18;;;;;;;2.03;0.95;;;10.50;99.90;;;;;;5043731;28;20115;-74
2023/12/17 02:02:45;;;;;;;2.63;0.90;;;10.50;99.90;;;;;;5024398;28;20049;-74
2023/12/17 02:05:11;;;;;;;2.70;1.20;;;10.50;99.90;;;;;;5009901;28;20436;-74
2023/12/17 02:07:40;;;;;;;4.85;1.05;;;10.40;99.90;;;;;;4992697;28;20487;-74
2023/12/17 02:10:07;;;;;;;1.02;0.57;;;10.40;99.90;;;;;;5009916;28;20129;-74
2023/12/17 02:12:34;;;;;;;2.72;1.00;;;10.50;99.90;;;;;;5024717;28;20049;-74
2023/12/17 02:15:00;;;;;;;2.63;0.85;;;10.50;99.90;;;;;;5025895;28;20064;-74
2023/12/17 02:17:28;;;;;;;1.95;0.75;;;10.40;97.90;;;;;;5007381;28;20246;-74
2023/12/17 02:19:55;;;;;;;2.15;0.90;;;10.40;25.80;;;;;;5009671;28;20399;-74
2023/12/17 02:22:26;;;;;;;1.95;1.05;;;10.40;1.00;;;;;;5008606;28;20482;-74
2023/12/17 02:24:53;;;;;;;3.65;1.23;;;10.30;1.00;;;;;;4992879;28;20437;-74
2023/12/17 02:27:24;;;;;;;1.35;0.80;;;10.30;1.00;;;;;;4992891;28;20114;-74
2023/12/17 02:29:51;;;;;;;3.45;1.17;;;10.30;1.00;;;;;;5025963;28;20072;-74
2023/12/17 02:32:20;;;;;;;2.20;1.17;;;10.30;1.00;;;;;;4983649;28;20045;-74
2023/12/17 02:34:48;;;;;;;2.53;1.10;;;10.40;1.00;;;;;;4997205;28;20107;-74
2023/12/17 02:37:15;;;;;;;2.50;1.00;;;10.40;1.00;;;;;;5012268;28;20155;-74
2023/12/17 02:39:42;;;;;;;2.65;0.80;;;10.40;1.00;;;;;;4996830;28;20060;-74
2023/12/17 02:42:08;;;;;;;1.95;1.00;;;10.40;1.00;;;;;;5012085;28;20083;-74
2023/12/17 02:44:35;;;;;;;1.27;0.70;;;10.40;1.00;;;;;;5028808;28;20056;-74
2023/12/17 02:47:03;;;;;;;2.33;0.75;;;10.40;1.00;;;;;;5010580;28;20098;-74
2023/12/17 02:49:31;;;;;;;1.35;0.77;;;10.40;1.00;;;;;;5012859;28;20392;-74
2023/12/17 02:51:58;;;;;;;1.52;0.60;;;10.40;1.00;;;;;;5028113;28;20590;-75
2023/12/17 02:54:25;;;;;;;1.70;0.93;;;10.30;1.00;;;;;;5029149;28;20053;-74
2023/12/17 02:56:52;;;;;;;2.25;0.95;;;10.30;1.00;;;;;;5028086;28;20092;-74
2023/12/17 02:59:19;;;;;;;1.75;0.90;;;10.30;1.00;;;;;;5027683;28;20060;-74
2023/12/17 03:01:46;;;;;;;1.50;0.63;;;10.30;1.00;;;;;;5026971;28;20064;-74
2023/12/17 03:04:13;;;;;;;1.42;0.50;;;10.30;1.00;;;;;;5028309;28;20144;-74
2023/12/17 03:06:39;;;;;;;1.73;1.02;;;10.30;1.00;;;;;;5011967;28;20049;-74
2023/12/17 03:09:06;;;;;;;2.17;0.98;;;10.30;1.00;;;;;;4995714;28;20443;-74
2023/12/17 03:11:33;;;;;;;1.52;0.60;;;10.30;1.00;;;;;;4995017;28;20048;-74
2023/12/17 03:14:01;;;;;;;2.42;0.75;;;10.30;1.00;;;;;;5028328;28;20095;-74
2023/12/17 03:16:28;;;;;;;2.83;1.00;;;10.30;1.00;;;;;;5026780;28;20480;-74
2023/12/17 03:18:55;;;;;;;2.45;0.80;;;10.30;1.00;;;;;;5028067;28;20049;-75
2023/12/17 03:21:23;;;;;;;2.65;0.93;;;10.30;1.00;;;;;;5027740;28;20049;-74
2023/12/17 03:23:50;;;;;;;2.80;0.80;;;10.30;1.00;;;;;;5011555;28;20140;-74
2023/12/17 03:26:17;;;;;;;3.45;1.23;;;10.30;1.00;;;;;;5028150;28;20071;-74
2023/12/17 03:28:44;;;;;;;3.35;0.80;;;10.30;1.00;;;;;;5028124;28;20049;-74
2023/12/17 03:31:14;;;;;;;2.40;1.05;;;10.30;1.00;;;;;;5035529;28;20056;-74
2023/12/17 03:33:42;;;;;;;1.90;0.90;;;10.30;1.00;;;;;;5010866;28;20063;-74
2023/12/17 03:36:14;;;;;;;1.73;0.90;;;10.30;1.00;;;;;;5011436;28;20134;-74
2023/12/17 03:38:42;;;;;;;2.43;1.17;;;10.20;1.00;;;;;;5012270;28;20045;-74
2023/12/17 03:41:22;;;;;;;1.17;0.60;;;10.30;1.00;;;;;;5027721;28;20131;-74
2023/12/17 03:43:52;;;;;;;2.92;0.80;;;10.30;1.00;;;;;;5045423;28;20048;-74
2023/12/17 03:46:22;;;;;;;1.42;0.77;;;10.30;1.00;;;;;;5009979;28;20041;-74
2023/12/17 03:48:49;;;;;;;4.13;1.20;;;10.20;1.00;;;;;;5028290;28;20138;-74
2023/12/17 03:51:16;;;;;;;1.42;0.82;;;10.20;1.00;;;;;;5010937;28;20087;-74
2023/12/17 03:53:43;;;;;;;2.65;0.85;;;10.20;1.00;;;;;;5027488;28;20499;-74
2023/12/17 03:56:11;;;;;;;2.25;0.93;;;10.20;1.00;;;;;;4994282;28;20142;-74
2023/12/17 03:58:38;;;;;;;3.38;1.35;;;10.20;1.00;;;;;;5027453;28;20476;-74
2023/12/17 04:01:05;;;;;;;1.75;0.70;;;10.20;1.00;;;;;;5025990;28;20110;-74
2023/12/17 04:03:32;;;;;;;1.85;0.80;;;10.20;1.00;;;;;;5027046;28;20072;-74
2023/12/17 04:06:00;;;;;;;1.45;0.80;;;10.20;1.00;;;;;;5026938;28;20064;-74
2023/12/17 04:08:26;;;;;;;1.67;0.80;;;10.20;1.00;;;;;;5011061;28;20131;-75
2023/12/17 04:10:53;;;;;;;2.13;0.70;;;10.20;1.00;;;;;;5010193;28;20545;-74
2023/12/17 04:13:20;;;;;;;1.15;0.93;;;10.10;1.00;;;;;;5010712;28;20072;-74
2023/12/17 04:15:47;;;;;;;2.10;1.00;;;10.10;1.00;;;;;;5026765;28;20136;-74
2023/12/17 04:18:13;;;;;;;1.20;0.68;;;10.10;1.00;;;;;;5009462;28;20110;-74
2023/12/17 04:20:40;;;;;;;1.67;1.02;;;10.10;1.00;;;;;;5011039;28;20071;-74
2023/12/17 04:23:07;;;;;;;1.65;0.80;;;10.10;1.00;;;;;;5010300;28;20057;-74
2023/12/17 04:25:34;;;;;;;3.17;0.85;;;10.20;1.00;;;;;;5045045;28;20050;-74
2023/12/17 04:28:01;;;;;;;1.70;0.60;;;10.10;1.00;;;;;;5010584;28;20118;-74
2023/12/17 04:30:29;;;;;;;2.67;0.70;;;10.10;1.00;;;;;;5010464;28;20131;-74
2023/12/17 04:32:56;;;;;;;2.25;0.90;;;10.10;1.00;;;;;;5025262;28;20063;-74
2023/12/17 04:35:23;;;;;;;2.22;0.63;;;10.10;1.00;;;;;;5026551;28;20052;-74
2023/12/17 04:37:50;;;;;;;5.55;1.20;;;10.10;1.00;;;;;;5044702;28;20380;-74
2023/12/17 04:40:16;;;;;;;3.22;0.95;;;10.10;1.00;;;;;;5026354;28;20178;-74
2023/12/17 04:42:43;;;;;;;2.25;0.95;;;10.10;1.00;;;;;;5009110;28;20411;-74
2023/12/17 04:45:10;;;;;;;2.95;1.00;;;10.10;1.00;;;;;;5026602;28;20052;-74
2023/12/17 04:47:37;;;;;;;2.30;0.80;;;10.10;1.00;;;;;;5008940;28;20049;-74
2023/12/17 04:50:05;;;;;;;1.65;0.90;;;10.10;99.90;;;;;;5027050;28;20479;-74
2023/12/17 04:52:32;;;;;;;1.73;0.60;;;10.10;99.90;;;;;;5044185;28;20053;-74
2023/12/17 04:55:02;;;;;;;0.88;0.60;;;10.00;99.90;;;;;;4995396;28;20045;-74
2023/12/17 04:57:29;;;;;;;1.58;0.90;;;10.00;99.90;;;;;;5009745;28;20483;-74
2023/12/17 04:59:56;;;;;;;1.48;0.75;;;10.00;99.90;;;;;;5043905;28;20045;-74
2023/12/17 05:02:23;;;;;;;1.73;0.70;;;10.00;99.90;;;;;;5008042;28;20404;-74
2023/12/17 05:04:50;;;;;;;1.05;0.50;;;10.00;99.90;;;;;;5044303;28;20403;-74
2023/12/17 05:07:17;;;;;;;2.22;0.88;;;10.00;99.90;;;;;;5026016;28;20477;-74
2023/12/17 05:09:44;;;;;;;1.42;0.60;;;10.00;99.90;;;;;;5010153;28;20102;-74
2023/12/17 05:12:11;;;;;;;0.88;0.52;;;10.00;99.90;;;;;;4992812;28;20059;-74
2023/12/17 05:14:37;;;;;;;2.60;0.80;;;10.00;99.90;;;;;;4993989;28;20467;-74
2023/12/17 05:17:04;;;;;;;2.22;0.90;;;10.00;99.90;;;;;;5023809;28;20053;-74
2023/12/17 05:19:31;;;;;;;2.38;1.10;;;10.00;99.90;;;;;;5044247;28;20045;-74
2023/12/17 05:21:58;;;;;;;2.50;0.85;;;10.00;99.90;;;;;;5043035;28;20053;-74
2023/12/17 05:24:25;;;;;;;1.98;1.10;;;10.00;99.90;;;;;;5009588;28;20481;-74
2023/12/17 05:26:52;;;;;;;1.85;0.90;;;10.00;1.00;;;;;;5043650;28;20525;-74
2023/12/17 05:29:19;;;;;;;1.75;0.90;;;10.00;1.00;;;;;;5009709;28;20049;-74
2023/12/17 05:31:45;;;;;;;1.25;0.60;;;10.10;1.00;;;;;;5024424;28;20079;-74
2023/12/17 05:34:12;;;;;;;2.03;0.90;;;10.10;1.00;;;;;;5025592;28;20136;-74
2023/12/17 05:36:39;;;;;;;1.85;0.80;;;10.10;99.90;;;;;;5043027;28;20141;-74
2023/12/17 05:39:06;;;;;;;3.28;0.73;;;10.10;99.90;;;;;;5026142;28;20049;-75
2023/12/17 05:41:33;;;;;;;1.77;0.70;;;10.10;99.90;;;;;;5009354;28;20057;-74
2023/12/17 05:43:59;;;;;;;2.40;0.90;;;10.00;99.90;;;;;;5009360;28;20053;-74
2023/12/17 05:46:26;;;;;;;2.05;0.85;;;10.00;99.90;;;;;;5041426;28;20049;-74
2023/12/17 05:48:53;;;;;;;1.40;1.05;;;10.00;99.90;;;;;;5008264;28;20525;-74
2023/12/17 05:51:20;;;;;;;1.67;0.68;;;10.00;99.90;;;;;;5031507;28;20049;-74
2023/12/17 05:53:47;;;;;;;2.92;0.88;;;9.90;99.90;;;;;;5053968;28;20114;-74
2023/12/17 05:56:14;;;;;;;2.65;1.10;;;9.90;1.00;;;;;;5024041;28;20075;-74
2023/12/17 05:58:41;;;;;;;1.77;0.80;;;9.90;99.90;;;;;;5005239;28;20053;-74
2023/12/17 06:01:08;;;;;;;2.60;0.93;;;9.90;99.90;;;;;;5021254;28;20159;-74
2023/12/17 06:03:37;;;;;;;3.05;1.55;;;9.80;99.90;;;;;;5002763;28;20068;-74
2023/12/17 06:06:05;;;;;;;2.13;0.90;;;9.80;99.90;;;;;;5021760;28;20281;-75
2023/12/17 06:08:32;;;;;;;3.25;1.35;;;9.80;99.90;;;;;;4989805;28;20060;-74
2023/12/17 06:10:59;;;;;;;3.20;1.05;;;9.70;99.90;;;;;;5021671;28;20060;-75
2023/12/17 06:13:26;;;;;;;2.50;0.98;;;9.70;99.90;;;;;;5021379;28;20146;-74
2023/12/17 06:15:54;;;;;;;4.13;1.92;;;9.70;99.90;;;;;;5003487;28;20101;-74
2023/12/17 06:18:21;;;;;;;4.72;1.25;;;9.60;99.90;;;;;;5005422;28;20106;-74
2023/12/17 06:20:48;;;;;;;2.58;1.17;;;9.60;99.90;;;;;;4988475;28;20363;-74
2023/12/17 06:23:14;;;;;;;3.35;1.20;;;9.60;99.90;;;;;;5038033;28;20076;-74
2023/12/17 06:25:42;;;;;;;3.90;1.17;;;9.60;99.90;;;;;;5003467;28;20057;-74
2023/12/17 06:28:09;;;;;;;1.85;1.00;;;9.60;99.90;;;;;;5020268;28;20130;-74
2023/12/17 06:30:36;;;;;;;3.30;1.20;;;9.60;99.90;;;;;;5020496;28;20509;-74
2023/12/17 06:33:03;;;;;;;3.47;1.20;;;9.60;99.90;;;;;;5037065;28;20056;-74
2023/12/17 06:35:30;;;;;;;3.75;1.13;;;9.60;99.90;;;;;;5007854;28;20144;-73
2023/12/17 06:37:57;;;;;;;2.08;0.85;;;9.60;99.90;;;;;;5023977;28;20468;-73
2023/12/17 06:40:23;;;;;;;3.30;1.33;;;9.60;99.90;;;;;;5042307;28;20080;-74
2023/12/17 06:42:50;;;;;;;1.90;1.17;;;9.60;99.90;;;;;;5041952;28;20087;-74
2023/12/17 06:45:17;;;;;;;3.38;1.30;;;9.60;99.90;;;;;;5008176;28;20395;-73
2023/12/17 06:47:45;;;;;;;2.67;1.20;;;9.60;99.90;;;;;;5021232;28;20049;-73
2023/12/17 06:50:12;;;;;;;4.65;1.80;;;9.60;99.90;;;;;;5006359;28;20061;-74
2023/12/17 06:52:39;;;;;;;2.83;1.38;;;9.70;99.90;;;;;;5005026;28;20132;-74
2023/12/17 06:55:07;;;;;;;2.72;1.40;;;9.70;99.90;;;;;;5023492;28;20147;-74
2023/12/17 06:57:34;;;;;;;4.75;1.80;;;9.70;99.90;;;;;;5020457;28;20449;-73
2023/12/17 07:00:01;;;;;;;4.85;2.00;;;9.70;99.90;;;;;;5005213;28;20503;-74
2023/12/17 07:02:29;;;;;;;3.83;1.50;;;9.70;99.90;;;;;;5021094;28;20084;-74
2023/12/17 07:04:55;;;;;;;3.65;1.70;;;9.70;99.90;;;;;;5022913;28;20778;-74
2023/12/17 07:07:24;;;;;;;2.92;1.33;;;9.70;99.90;;;;;;5023059;28;20059;-74
2023/12/17 07:09:53;;;;;;;3.08;1.35;;;9.70;99.90;;;;;;5041295;28;20418;-74
2023/12/17 07:12:20;;;;;;;3.67;1.83;;;9.70;99.90;;;;;;5036457;28;20049;-73
2023/12/17 07:14:47;;;;;;;2.17;1.30;;;9.70;99.90;;;;;;5040239;28;20427;-74
2023/12/17 07:17:14;;;;;;;4.00;1.70;;;9.70;99.90;;;;;;5037943;28;20052;-74
2023/12/17 07:19:40;;;;;;;2.20;1.15;;;9.80;99.90;;;;;;5007660;28;20076;-74
2023/12/17 07:22:08;;;;;;;3.33;1.30;;;9.70;99.90;;;;;;5023309;28;20437;-73
2023/12/17 07:24:34;;;;;;;3.53;1.40;;;9.70;99.90;;;;;;5023149;28;20160;-72
2023/12/17 07:27:01;;;;;;;4.07;1.70;;;9.60;99.90;;;;;;5023789;28;20049;-72
2023/12/17 07:29:28;;;;;;;2.85;1.50;;;9.60;99.90;;;;;;5041924;28;20052;-73
2023/12/17 07:31:55;;;;;;;2.65;1.40;;;9.60;99.90;;;;;;5021944;28;20071;-74
2023/12/17 07:34:22;;;;;;;4.28;1.80;;;9.50;99.90;;;;;;5023389;28;20099;-73
2023/12/17 07:36:49;;;;;;;5.38;2.53;;;9.50;99.90;;;;;;5040787;28;20482;-73
2023/12/17 07:39:18;;;;;;;4.32;1.90;;;9.50;99.90;;;;;;5022820;28;20056;-73
2023/12/17 07:41:45;;;;;;;4.30;1.40;;;9.40;99.90;;;;;;5006404;28;20076;-73
2023/12/17 07:44:12;;;;;;;3.92;1.52;;;9.40;99.90;;;;;;5005608;28;20140;-73
2023/12/17 07:46:39;;;;;;;3.30;2.00;;;9.50;99.90;;;;;;5005411;28;20107;-73
2023/12/17 07:49:06;;;;;;;6.05;2.65;;;9.40;99.90;;;;;;5021226;28;20074;-73
2023/12/17 07:51:34;;;;;;;4.22;1.70;;;9.40;99.90;;;;;;5040995;28;20071;-74
2023/12/17 07:54:01;;;;;;;4.03;2.67;;;9.40;99.90;;;;;;5007393;28;20386;-74
2023/12/17 07:56:27;;;;;;;3.63;1.83;;;9.40;99.90;;;;;;5006788;28;20852;-74
2023/12/17 07:58:54;;;;;;;2.85;1.30;;;9.40;99.90;;;;;;4990266;28;20560;-74
2023/12/17 08:01:30;;;;;;;4.07;2.03;;;9.30;99.90;;;;;;5005414;28;20165;-75
2023/12/17 08:03:58;;;;;;;5.25;2.42;;;9.30;99.90;;;;;;5022815;28;20185;-74
2023/12/17 08:06:24;;;;;;;3.15;2.10;;;9.30;99.90;;;;;;5022001;28;20059;-75
2023/12/17 08:08:55;;;;;;;4.15;2.10;;;9.20;99.90;;;;;;5022903;28;20060;-76
2023/12/17 08:11:22;;;;;;;7.95;2.28;;;9.20;99.90;;;;;;5002576;28;20338;-74
2023/12/17 08:13:49;;;;;;;3.40;1.60;;;9.20;99.90;;;;;;5022173;28;20045;-74
2023/12/17 08:16:16;;;;;;;3.42;1.55;;;9.20;99.90;;;;;;5038901;28;20358;-74
2023/12/17 08:18:43;;;;;;;3.05;1.75;;;9.20;99.90;;;;;;5005505;28;20265;-74
2023/12/17 08:21:10;;;;;;;2.30;1.42;;;9.10;99.90;;;;;;5040035;28;20060;-74
2023/12/17 08:23:36;;;;;;;4.72;1.80;;;9.10;99.90;;;;;;5036750;28;20056;-73
2023/12/17 08:26:07;;;;;;;4.95;2.63;;;9.20;1.00;;;;;;5040185;28;20083;-73
2023/12/17 08:28:34;;;;;;;4.18;2.13;;;9.20;99.90;;;;;;5022433;28;20053;-71
2023/12/17 08:31:00;;;;;;;4.45;1.77;;;9.30;99.90;;;;;;5039103;28;20049;-72
2023/12/17 08:33:27;;;;;;;3.45;1.75;;;9.30;99.90;;;;;;5022030;28;20045;-72
2023/12/17 08:35:54;;;;;;;5.30;1.90;;;9.30;99.90;;;;;;5039219;28;20083;-72
2023/12/17 08:38:21;;;;;;;2.90;1.48;;;9.30;99.90;;;;;;5005549;28;20300;-72
2023/12/17 08:40:48;;;;;;;2.95;1.30;;;9.30;99.90;;;;;;5020496;28;20041;-72
2023/12/17 08:43:15;;;;;;;4.88;1.70;;;9.30;99.90;;;;;;5002259;28;20126;-72
2023/12/17 08:45:42;;;;;;;3.08;1.50;;;9.30;99.90;;;;;;5013250;28;20048;-74
2023/12/17 08:48:09;;;;;;;2.17;1.30;;;9.30;99.90;;;;;;5002272;28;20271;-74
2023/12/17 08:50:36;;;;;;;4.70;1.95;;;9.40;99.90;;;;;;5037307;28;20060;-74
2023/12/17 08:53:03;;;;;;;2.67;1.52;;;9.40;99.90;;;;;;5002199;28;20048;-74
2023/12/17 08:55:30;;;;;;;2.50;1.55;;;9.40;99.90;;;;;;5038156;28;20321;-74
2023/12/17 08:57:57;;;;;;;3.58;2.03;;;9.50;99.90;;;;;;5002963;28;20049;-75
2023/12/17 09:00:25;;;;;;;4.55;1.80;;;9.50;99.90;;;;;;5019522;28;20068;-75
2023/12/17 09:02:52;;;;;;;2.45;1.50;;;9.60;99.90;;;;;;5018230;28;20045;-74
2023/12/17 09:05:19;;;;;;;2.10;1.52;;;9.60;99.90;;;;;;5016112;28;20052;-74
2023/12/17 09:07:46;;;;;;;3.50;1.48;;;9.60;99.90;;;;;;5000072;28;20053;-74
2023/12/17 09:10:13;;;;;;;4.10;2.15;;;9.60;99.90;;;;;;4992128;28;20812;-75
2023/12/17 09:12:40;;;;;;;3.10;1.73;;;9.70;99.90;;;;;;5018524;28;20538;-74
2023/12/17 09:15:07;;;;;;;4.53;1.70;;;9.70;99.90;;;;;;5035618;28;20048;-73
2023/12/17 09:17:34;;;;;;;3.88;1.73;;;9.80;99.90;;;;;;5035055;28;20144;-73
2023/12/17 09:20:01;;;;;;;2.75;2.00;;;9.80;99.90;;;;;;5019869;28;20052;-72
2023/12/17 09:22:27;;;;;;;2.85;1.42;;;9.80;99.90;;;;;;5019697;28;20080;-72
2023/12/17 09:24:54;;;;;;;2.25;1.50;;;9.90;99.90;;;;;;5019361;28;20057;-73
2023/12/17 09:27:22;;;;;;;3.05;1.58;;;9.90;99.90;;;;;;5034490;28;20072;-72
2023/12/17 09:29:49;;;;;;;3.50;1.60;;;10.00;99.90;;;;;;5011045;28;20053;-72
2023/12/17 09:32:17;;;;;;;4.15;1.50;;;10.00;99.90;;;;;;5050518;28;20491;-72
2023/12/17 09:34:43;;;;;;;5.00;2.28;;;10.00;99.90;;;;;;5035463;28;20049;-73
2023/12/17 09:37:10;;;;;;;4.40;2.13;;;10.10;99.90;;;;;;5036984;28;20110;-72
2023/12/17 09:39:37;;;;;;;2.90;1.58;;;10.10;99.90;;;;;;5027324;28;20052;-72
2023/12/17 09:42:04;;;;;;;5.22;1.40;;;10.10;99.90;;;;;;5036710;28;20052;-72
2023/12/17 09:44:31;;;;;;;3.90;1.40;;;10.10;99.90;;;;;;5018263;28;20049;-72
2023/12/17 09:46:59;;;;;;;3.67;1.60;;;10.20;99.90;;;;;;5016945;28;20068;-72
2023/12/17 09:49:26;;;;;;;4.07;1.60;;;10.20;99.90;;;;;;5037074;28;20513;-72
2023/12/17 09:52:02;;;;;;;3.22;1.45;;;10.30;99.90;;;;;;5037120;28;20110;-72
2023/12/17 09:54:28;;;;;;;3.53;1.55;;;10.30;99.90;;;;;;4982264;28;20049;-72
2023/12/17 09:56:56;;;;;;;4.72;1.50;;;10.30;99.90;;;;;;5032854;28;20064;-72
2023/12/17 09:59:23;;;;;;;3.03;1.55;;;10.30;99.90;;;;;;5001470;28;20063;-72
2023/12/17 10:01:51;;;;;;;3.53;1.95;;;10.30;99.90;;;;;;4996731;28;20410;-72
2023/12/17 10:04:25;;;;;;;2.40;1.23;;;10.30;99.90;;;;;;4998135;28;20076;-73
2023/12/17 10:06:52;;;;;;;2.67;1.25;;;10.40;99.90;;;;;;5018698;28;20056;-72
2023/12/17 10:09:19;;;;;;;2.63;1.52;;;10.40;99.90;;;;;;5006104;28;20674;-73
2023/12/17 10:11:46;;;;;;;8.00;2.38;;;10.50;99.90;;;;;;5022175;28;20625;-72
2023/12/17 10:14:24;;;;;;;3.90;1.33;;;10.40;99.90;;;;;;5002796;28;20081;-72
2023/12/17 10:16:51;;;;;;;3.78;1.50;;;10.50;99.90;;;;;;5014503;28;20118;-72
2023/12/17 10:19:18;;;;;;;4.80;1.65;;;10.50;99.90;;;;;;5005824;28;20514;-72
2023/12/17 10:21:45;;;;;;;3.38;1.38;;;10.50;99.90;;;;;;5021200;28;20095;-72
2023/12/17 10:24:12;;;;;;;2.45;1.15;;;10.60;99.90;;;;;;5019604;28;20060;-74
2023/12/17 10:26:43;;;;;;;4.40;1.40;;;10.60;99.90;;;;;;5005734;28;20438;-71
2023/12/17 10:29:15;;;;;;;3.42;1.63;;;10.60;99.90;;;;;;5042676;28;20099;-72
2023/12/17 10:31:42;;;;;;;5.07;2.30;;;10.60;99.90;;;;;;4987784;28;20116;-74
2023/12/17 10:34:19;;;;;;;5.50;1.98;;;10.60;99.90;;;;;;5017075;28;20167;-73
2023/12/17 10:36:47;;;;;;;2.70;1.25;;;10.60;99.90;;;;;;5007037;28;20525;-73
2023/12/17 10:39:19;;;;;;;5.07;1.80;;;10.60;99.90;;;;;;5044134;28;20407;-74
2023/12/17 10:41:49;;;;;;;3.83;1.70;;;10.70;99.90;;;;;;5024595;28;20053;-72
2023/12/17 10:44:17;;;;;;;3.17;1.50;;;10.70;99.90;;;;;;5024816;28;20120;-72
2023/12/17 10:46:45;;;;;;;3.42;1.63;;;10.70;99.90;;;;;;5018821;28;20128;-73
2023/12/17 10:49:12;;;;;;;3.28;1.60;;;10.80;99.90;;;;;;5024837;28;20138;-72
2023/12/17 10:51:40;;;;;;;3.83;1.52;;;10.80;99.90;;;;;;5042508;28;20410;-72
2023/12/17 10:54:07;;;;;;;2.95;1.38;;;10.80;99.90;;;;;;5004405;28;20129;-72
2023/12/17 10:56:48;;;;;;;2.80;1.27;;;10.90;99.90;;;;;;5005505;28;20049;-72
2023/12/17 10:59:18;;;;;;;2.53;1.20;;;10.90;99.90;;;;;;4992112;28;20051;-72
2023/12/17 11:02:01;;;;;;;2.40;1.20;;;11.00;99.90;;;;;;5010792;28;20077;-72
2023/12/17 11:04:27;;;;;;;2.53;1.33;;;11.00;99.90;;;;;;5008121;28;20111;-72
2023/12/17 11:06:54;;;;;;;2.33;1.00;;;11.00;99.90;;;;;;5012635;28;20079;-73
2023/12/17 11:09:21;;;;;;;4.20;1.27;;;11.10;99.90;;;;;;5007763;28;20057;-73
2023/12/17 11:11:48;;;;;;;2.95;1.17;;;11.10;99.90;;;;;;5041625;28;20045;-72
2023/12/17 11:14:15;;;;;;;3.67;1.50;;;11.20;99.90;;;;;;5007406;28;20057;-74
2023/12/17 11:16:41;;;;;;;5.97;2.45;;;11.20;99.90;;;;;;4989700;28;20507;-74
2023/12/17 11:19:15;;;;;;;3.60;1.58;;;11.20;99.90;;;;;;5005274;28;20145;-71
2023/12/17 11:21:44;;;;;;;2.83;1.58;;;11.20;99.90;;;;;;5008662;28;20482;-72
2023/12/17 11:24:11;;;;;;;3.35;1.63;;;11.30;99.90;;;;;;5006078;28;20099;-72
2023/12/17 11:26:40;;;;;;;2.20;1.20;;;11.30;99.90;;;;;;5040965;28;20056;-73
2023/12/17 11:29:32;;;;;;;4.82;1.60;;;11.40;99.90;;;;;;5040198;28;20053;-72
2023/12/17 11:32:00;;;;;;;3.28;1.73;;;11.40;99.90;;;;;;5039670;28;20514;-72
2023/12/17 11:34:29;;;;;;;1.25;1.00;;;11.40;99.90;;;;;;5007036;28;20045;-72
2023/12/17 11:37:00;;;;;;;3.75;1.60;;;11.40;99.90;;;;;;4991375;28;20063;-72
2023/12/17 11:39:27;;;;;;;4.28;1.83;;;11.40;99.90;;;;;;5041438;28;20475;-73
2023/12/17 11:41:54;;;;;;;4.07;1.50;;;11.30;99.90;;;;;;4990715;28;20636;-72
2023/12/17 11:44:21;;;;;;;2.42;1.25;;;11.30;99.90;;;;;;5041009;28;20135;-72
2023/12/17 11:46:49;;;;;;;2.72;1.52;;;11.30;99.90;;;;;;5038791;28;20237;-77
2023/12/17 11:49:25;;;;;;;3.70;1.50;;;11.30;99.90;;;;;;5006274;28;20059;-77
2023/12/17 11:51:52;;;;;;;2.70;1.20;;;11.30;99.90;;;;;;4992230;28;20128;-78
2023/12/17 11:54:26;;;;;;;2.40;1.48;;;11.30;99.90;;;;;;4990863;28;20084;-78
2023/12/17 11:56:53;;;;;;;4.45;1.63;;;11.30;99.90;;;;;;5007072;28;20122;-78
2023/12/17 11:59:33;;;;;;;3.67;1.95;;;11.20;99.90;;;;;;5023710;28;20458;-77
2023/12/17 12:02:00;;;;;;;3.90;1.73;;;11.20;99.90;;;;;;5005446;28;20080;-78
2023/12/17 12:04:27;;;;;;;4.05;1.70;;;11.20;99.90;;;;;;5007237;28;20586;-78
2023/12/17 12:06:55;;;;;;;3.30;1.40;;;11.30;99.90;;;;;;5023099;28;20128;-76
2023/12/17 12:09:22;;;;;;;3.20;1.50;;;11.40;99.90;;;;;;5041169;28;20041;-77
2023/12/17 12:11:49;;;;;;;2.63;1.48;;;11.40;99.90;;;;;;5006491;28;20053;-77
2023/12/17 12:14:16;;;;;;;4.65;1.70;;;11.40;99.90;;;;;;5040706;28;20367;-77
2023/12/17 12:16:43;;;;;;;4.05;1.63;;;11.40;99.90;;;;;;5004204;28;20136;-77
2023/12/17 12:19:10;;;;;;;3.13;1.65;;;11.40;99.90;;;;;;4988690;28;20511;-77
2023/12/17 12:21:49;;;;;;;3.08;1.55;;;11.40;99.90;;;;;;5006402;28;20474;-77
2023/12/17 12:24:19;;;;;;;2.38;1.20;;;11.40;99.90;;;;;;4986241;28;20119;-77
2023/12/17 12:26:46;;;;;;;3.72;1.80;;;11.50;99.90;;;;;;4999729;28;20579;-77
2023/12/17 12:29:13;;;;;;;4.68;2.20;;;11.50;99.90;;;;;;4983935;28;20072;-78
2023/12/17 12:31:51;;;;;;;2.58;1.55;;;11.50;99.90;;;;;;4994312;28;20129;-78
2023/12/17 12:34:19;;;;;;;3.45;1.60;;;11.60;99.90;;;;;;4996423;28;20045;-77
2023/12/17 12:36:47;;;;;;;3.60;1.20;;;11.70;99.90;;;;;;4984457;28;20061;-77
2023/12/17 12:39:15;;;;;;;2.72;1.60;;;11.70;99.90;;;;;;4997439;28;20053;-77
2023/12/17 12:41:44;;;;;;;3.38;1.35;;;11.80;99.90;;;;;;4984020;28;20053;-78
2023/12/17 12:44:13;;;;;;;2.92;1.20;;;11.80;99.90;;;;;;4982903;28;20045;-78
2023/12/17 12:46:44;;;;;;;2.22;1.23;;;11.80;99.90;;;;;;5005966;28;20083;-77
2023/12/17 12:49:10;;;;;;;3.13;1.05;;;11.70;99.90;;;;;;4980971;28;20092;-77
2023/12/17 12:51:38;;;;;;;3.30;1.42;;;11.90;99.90;;;;;;4996415;28;20414;-78
2023/12/17 12:54:06;;;;;;;2.92;1.30;;;12.00;99.90;;;;;;4988187;28;20131;-78